Time;durP1;ratioP1;P1;durP2;ratioP2;P2;SDS_P1;SDS_P2;PMS_P1;PMS_P2;Temp;Humidity;BMP_temperature;BMP_pressure;BME280_temperature;BME280_humidity;BME280_pressure;Samples;Min_cycle;Max_cycle;Signal;HPM_P1;HPM_P2
2021/12/07 00:01:40;;;;;;;17.77;4.43;;;;;;;3.99;100.00;100518.88;5087742;27;20094;-67
2021/12/07 00:04:11;;;;;;;26.15;5.03;;;;;;;4.22;100.00;100523.94;5091454;27;20071;-68
2021/12/07 00:06:40;;;;;;;16.98;4.07;;;;;;;4.38;100.00;100537.84;5089661;27;20047;-67
2021/12/07 00:09:12;;;;;;;9.40;3.03;;;;;;;4.36;100.00;100526.41;5088746;28;20248;-68
2021/12/07 00:11:40;;;;;;;15.27;3.90;;;;;;;4.55;100.00;100544.69;5090284;27;20556;-68
2021/12/07 00:14:12;;;;;;;10.88;2.92;;;;;;;4.62;100.00;100541.09;5093046;27;20060;-69
2021/12/07 00:16:41;;;;;;;11.98;3.08;;;;;;;4.69;100.00;100540.09;5085835;27;20207;-69
2021/12/07 00:19:11;;;;;;;7.88;2.28;;;;;;;4.53;100.00;100546.47;5091385;27;20065;-69
2021/12/07 00:21:41;;;;;;;8.43;3.00;;;;;;;4.80;100.00;100555.81;5090567;27;20137;-69
2021/12/07 00:24:11;;;;;;;7.75;2.28;;;;;;;4.71;100.00;100546.25;5090573;27;20079;-69
2021/12/07 00:26:41;;;;;;;9.60;2.45;;;;;;;4.72;100.00;100555.94;5086382;27;20051;-69
2021/12/07 00:29:11;;;;;;;26.00;3.50;;;;;;;4.70;100.00;100557.72;5092303;27;20182;-70
2021/12/07 00:31:49;;;;;;;5.32;2.42;;;;;;;4.81;100.00;100565.50;5087128;27;20166;-71
2021/12/07 00:34:38;;;;;;;8.88;2.40;;;;;;;4.67;100.00;100569.19;5084404;27;20043;-71
2021/12/07 00:37:08;;;;;;;19.83;3.53;;;;;;;4.72;100.00;100570.91;5047813;28;20393;-71
2021/12/07 00:39:37;;;;;;;10.35;2.70;;;;;;;4.69;100.00;100579.75;5047614;28;20205;-71
2021/12/07 00:42:06;;;;;;;11.80;2.70;;;;;;;4.66;100.00;100577.13;5045594;28;20465;-70
2021/12/07 00:44:37;;;;;;;14.10;3.05;;;;;;;4.55;100.00;100587.84;5049778;28;20072;-70
2021/12/07 00:47:05;;;;;;;12.75;2.65;;;;;;;4.52;100.00;100585.22;5046107;28;20041;-70
2021/12/07 00:49:34;;;;;;;13.40;3.28;;;;;;;4.75;100.00;100584.06;5048190;28;20532;-69
2021/12/07 00:52:02;;;;;;;12.32;2.67;;;;;;;4.59;100.00;100596.59;5043061;28;20116;-70
2021/12/07 00:54:30;;;;;;;12.05;2.80;;;;;;;4.47;100.00;100594.97;5045074;28;20075;-70
2021/12/07 00:56:58;;;;;;;9.93;2.88;;;;;;;4.45;100.00;100605.56;5046259;28;20114;-70
2021/12/07 00:59:26;;;;;;;12.18;2.65;;;;;;;4.37;100.00;100615.31;5046485;28;20610;-69
2021/12/07 01:01:54;;;;;;;13.45;3.13;;;;;;;4.51;100.00;100601.09;5046641;28;20068;-69
2021/12/07 01:04:23;;;;;;;17.35;3.13;;;;;;;4.47;100.00;100613.47;5044638;28;20286;-70
2021/12/07 01:07:03;;;;;;;12.07;2.83;;;;;;;4.48;100.00;100620.53;5044939;28;20055;-69
2021/12/07 01:09:37;;;;;;;12.27;2.92;;;;;;;4.44;100.00;100614.41;5053173;28;20150;-69
2021/12/07 01:26:00;;;;;;;11.35;2.53;;;;;;;4.41;100.00;100645.22;5051148;28;21946;-69
2021/12/07 01:28:33;;;;;;;8.32;2.45;;;;;;;4.42;100.00;100649.63;5050142;28;20053;-69
2021/12/07 01:31:10;;;;;;;17.30;3.78;;;;;;;4.46;100.00;100652.25;5050162;28;20231;-70
2021/12/07 01:34:09;;;;;;;12.93;3.20;;;;;;;4.51;100.00;100656.59;5050391;28;20513;-70
2021/12/07 01:36:52;;;;;;;14.20;3.08;;;;;;;4.42;100.00;100658.44;5045748;28;20049;-69
2021/12/07 01:42:58;;;;;;;13.63;2.88;;;;;;;4.42;100.00;100663.72;5090723;27;20414;-70
2021/12/07 01:45:54;;;;;;;13.90;3.40;;;;;;;4.47;100.00;100664.53;5088026;28;20047;-70
2021/12/07 01:51:18;;;;;;;9.77;3.15;;;;;;;4.39;100.00;100682.25;5061603;28;20075;-71
2021/12/07 01:59:44;;;;;;;13.95;4.63;;;;;;;4.23;100.00;100692.06;5085997;28;20048;-70
2021/12/07 02:02:18;;;;;;;16.30;3.28;;;;;;;4.18;100.00;100698.28;5086435;28;20052;-68
2021/12/07 02:04:47;;;;;;;9.68;2.92;;;;;;;4.14;100.00;100693.88;5087887;28;20056;-67
2021/12/07 02:07:15;;;;;;;11.35;2.85;;;;;;;4.19;100.00;100710.56;5086169;28;20055;-69
2021/12/07 02:09:48;;;;;;;8.10;2.60;;;;;;;4.10;100.00;100712.44;5088144;28;20144;-69
2021/12/07 02:12:16;;;;;;;13.68;3.17;;;;;;;4.01;100.00;100715.13;5085129;28;20074;-69
2021/12/07 02:14:48;;;;;;;12.13;2.95;;;;;;;3.98;100.00;100717.78;5085806;28;20044;-67
2021/12/07 02:17:23;;;;;;;10.18;3.53;;;;;;;3.94;100.00;100721.34;5088116;28;20098;-67
2021/12/07 02:19:51;;;;;;;11.57;3.42;;;;;;;3.89;100.00;100715.22;5083719;28;20491;-68
2021/12/07 02:22:20;;;;;;;5.13;2.70;;;;;;;3.81;100.00;100724.94;5087766;28;20110;-68
2021/12/07 02:24:49;;;;;;;10.00;2.70;;;;;;;3.71;100.00;100721.47;5087042;28;20051;-68
2021/12/07 02:27:17;;;;;;;13.70;3.20;;;;;;;3.67;100.00;100723.25;5086835;28;20058;-67
2021/12/07 02:29:45;;;;;;;10.75;3.08;;;;;;;3.63;100.00;100736.50;5085414;28;20472;-68
2021/12/07 02:32:13;;;;;;;12.85;2.92;;;;;;;3.78;100.00;100740.78;5086984;28;20050;-67
2021/12/07 02:34:53;;;;;;;30.02;3.80;;;;;;;3.84;100.00;100744.25;5087378;28;20063;-69
2021/12/07 02:37:23;;;;;;;12.85;3.17;;;;;;;3.97;100.00;100747.72;5084762;28;20052;-69
2021/12/07 02:39:51;;;;;;;12.02;3.80;;;;;;;3.88;100.00;100746.03;5089244;28;20142;-69
2021/12/07 02:42:19;;;;;;;11.25;2.70;;;;;;;3.79;100.00;100748.69;5087582;28;20044;-69
2021/12/07 02:44:47;;;;;;;8.88;2.55;;;;;;;3.80;100.00;100761.03;5084892;28;20774;-69
2021/12/07 02:47:15;;;;;;;13.35;2.95;;;;;;;3.92;100.00;100754.78;5086716;28;20475;-72
2021/12/07 02:49:44;;;;;;;9.57;2.67;;;;;;;3.91;100.00;100758.31;5080895;28;20681;-69
2021/12/07 02:52:13;;;;;;;8.95;3.00;;;;;;;3.89;100.00;100753.03;5081578;28;20049;-69
2021/12/07 02:54:46;;;;;;;10.40;3.35;;;;;;;3.93;100.00;100762.72;5070355;28;20080;-71
2021/12/07 02:57:17;;;;;;;16.48;3.03;;;;;;;3.96;100.00;100753.00;5074111;28;20047;-67
2021/12/07 02:59:51;;;;;;;9.68;3.28;;;;;;;3.79;100.00;100763.66;5072348;28;20079;-68
2021/12/07 03:02:22;;;;;;;10.77;2.53;;;;;;;3.95;100.00;100761.81;5073449;28;20042;-67
2021/12/07 03:04:59;;;;;;;10.52;3.17;;;;;;;3.85;100.00;100772.44;5070582;28;20040;-67
2021/12/07 03:07:44;;;;;;;11.45;4.22;;;;;;;3.82;100.00;100772.44;5100578;27;20097;-69
2021/12/07 03:26:47;;;;;;;11.98;3.05;;;;;;;3.50;100.00;100804.25;5071433;28;20079;-69
2021/12/07 03:29:15;;;;;;;7.60;2.50;;;;;;;3.46;100.00;100800.75;5073131;28;20165;-70
2021/12/07 03:31:43;;;;;;;14.63;2.92;;;;;;;3.47;100.00;100806.91;5072451;28;20048;-70
2021/12/07 03:34:12;;;;;;;10.25;2.80;;;;;;;3.62;100.00;100808.59;5070692;28;20080;-69
2021/12/07 03:36:41;;;;;;;16.55;3.75;;;;;;;3.71;100.00;100804.19;5070702;28;20471;-69
2021/12/07 03:39:10;;;;;;;11.70;2.97;;;;;;;3.82;100.00;100803.25;5070635;28;20122;-69
2021/12/07 03:41:38;;;;;;;14.25;3.08;;;;;;;3.76;100.00;100817.34;5074184;28;20047;-69
2021/12/07 03:44:07;;;;;;;13.75;3.20;;;;;;;3.88;100.00;100812.03;5072966;28;20069;-69
2021/12/07 03:46:38;;;;;;;11.80;2.97;;;;;;;3.92;100.00;100819.03;5069555;27;20467;-69
2021/12/07 03:49:07;;;;;;;9.88;3.00;;;;;;;4.04;100.00;100814.59;5056666;28;20201;-69
2021/12/07 03:51:35;;;;;;;9.80;2.35;;;;;;;3.95;100.00;100812.88;5070114;28;20534;-69
2021/12/07 03:54:05;;;;;;;10.57;2.90;;;;;;;3.90;100.00;100828.72;5069052;28;20464;-70
2021/12/07 03:56:35;;;;;;;8.13;2.35;;;;;;;3.80;100.00;100824.38;5071708;28;20576;-69
2021/12/07 03:59:03;;;;;;;11.95;2.60;;;;;;;3.67;100.00;100825.31;5072257;28;21371;-69
2021/12/07 04:01:33;;;;;;;8.23;2.35;;;;;;;3.76;100.00;100819.09;5070836;28;20143;-69
2021/12/07 04:04:03;;;;;;;9.25;2.28;;;;;;;3.86;100.00;100819.03;5069714;28;20093;-69
2021/12/07 04:06:32;;;;;;;16.65;3.63;;;;;;;3.88;100.00;100842.81;5071839;28;20407;-69
2021/12/07 04:08:59;;;;;;;7.78;2.42;;;;;;;3.99;100.00;100835.72;5069374;28;20143;-69
2021/12/07 04:11:27;;;;;;;6.75;2.42;;;;;;;4.04;100.00;100848.91;5071727;28;20052;-69
2021/12/07 04:13:56;;;;;;;7.25;2.30;;;;;;;3.99;100.00;100829.56;5071841;28;20040;-70
2021/12/07 04:16:23;;;;;;;6.20;2.80;;;;;;;3.84;100.00;100833.16;5070208;28;20470;-70
2021/12/07 04:18:53;;;;;;;8.80;2.47;;;;;;;3.70;100.00;100843.78;5071102;28;20062;-70
2021/12/07 04:21:20;;;;;;;5.28;2.20;;;;;;;3.66;100.00;100837.63;5070521;28;20048;-70
2021/12/07 04:23:48;;;;;;;6.72;2.67;;;;;;;3.53;100.00;100836.78;5068747;28;20048;-71
2021/12/07 04:26:16;;;;;;;9.70;2.35;;;;;;;3.52;100.00;100848.22;5070451;28;20052;-68
2021/12/07 04:28:45;;;;;;;8.90;2.53;;;;;;;3.47;100.00;100841.19;5072127;28;20051;-71
2021/12/07 04:31:14;;;;;;;12.25;3.15;;;;;;;3.40;100.00;100835.06;5067650;28;20048;-70
2021/12/07 04:33:43;;;;;;;11.60;2.60;;;;;;;3.42;100.00;100845.59;5071440;28;20067;-68
2021/12/07 04:36:13;;;;;;;6.85;2.40;;;;;;;3.41;100.00;100844.72;5070195;28;20097;-70
2021/12/07 04:38:42;;;;;;;15.85;3.25;;;;;;;3.41;100.00;100835.97;5069493;28;20054;-70
2021/12/07 04:41:11;;;;;;;9.48;2.67;;;;;;;3.33;100.00;100847.38;5071102;28;20064;-68
2021/12/07 04:43:40;;;;;;;11.93;3.22;;;;;;;3.50;100.00;100849.97;5068947;28;20073;-70
2021/12/07 04:46:14;;;;;;;9.10;2.97;;;;;;;3.45;100.00;100841.19;5069398;28;20048;-71
2021/12/07 04:59:57;;;;;;;6.93;2.70;;;;;;;3.10;100.00;100852.72;5071843;28;20044;-71
2021/12/07 05:02:26;;;;;;;10.65;3.08;;;;;;;3.05;100.00;100856.22;5072078;28;20134;-71
2021/12/07 05:04:54;;;;;;;9.98;2.72;;;;;;;2.97;100.00;100861.50;5069397;28;20138;-71
2021/12/07 05:07:29;;;;;;;10.45;2.72;;;;;;;2.94;100.00;100866.78;5070789;28;20476;-71
2021/12/07 05:10:17;;;;;;;8.45;2.58;;;;;;;3.01;100.00;100873.78;5069226;28;20062;-71
2021/12/07 05:15:54;;;;;;;8.32;2.53;;;;;;;3.03;100.00;100881.69;5069920;28;20044;-71
2021/12/07 05:18:36;;;;;;;7.07;2.33;;;;;;;3.07;100.00;100876.44;5067811;28;20106;-71
2021/12/07 05:24:01;;;;;;;7.03;2.88;;;;;;;2.97;100.00;100894.00;5069150;28;20094;-69
2021/12/07 05:37:49;;;;;;;10.35;2.88;;;;;;;2.76;100.00;100939.69;5049134;28;20048;-70
2021/12/07 05:40:20;;;;;;;8.32;2.97;;;;;;;2.66;100.00;100931.78;5069135;28;20461;-71
2021/12/07 05:42:49;;;;;;;8.50;3.17;;;;;;;2.61;100.00;100931.75;5066618;28;20048;-71
2021/12/07 05:45:20;;;;;;;12.05;3.45;;;;;;;2.57;100.00;100930.88;5068845;28;20144;-71
2021/12/07 05:47:48;;;;;;;8.98;2.90;;;;;;;2.49;100.00;100922.06;5069242;28;20301;-71
2021/12/07 05:50:19;;;;;;;10.68;3.60;;;;;;;2.39;100.00;100926.41;5071066;28;20706;-71
2021/12/07 05:52:47;;;;;;;11.73;3.00;;;;;;;2.28;100.00;100919.34;5069308;28;20048;-70
2021/12/07 05:55:15;;;;;;;13.88;2.97;;;;;;;2.26;100.00;100915.84;5069776;28;20056;-70
2021/12/07 05:57:45;;;;;;;9.43;3.65;;;;;;;2.20;100.00;100907.06;5068688;28;20101;-70
2021/12/07 06:00:19;;;;;;;10.15;3.10;;;;;;;2.01;100.00;100910.47;5069549;28;20629;-70
2021/12/07 06:02:46;;;;;;;;;;;;;;;1.90;100.00;100910.44;5071992;28;20090;-70
2021/12/07 06:05:15;;;;;;;15.82;4.90;;;;;;;1.93;100.00;100909.59;5071992;28;19928;-70
2021/12/07 06:07:43;;;;;;;13.40;4.53;;;;;;;1.89;100.00;100910.44;5068033;28;20080;-70
2021/12/07 06:10:11;;;;;;;13.18;5.47;;;;;;;1.70;100.00;100915.59;5070439;28;20145;-70
2021/12/07 06:12:39;;;;;;;12.00;4.15;;;;;;;1.58;100.00;100918.16;5069206;28;20055;-68
2021/12/07 06:15:10;;;;;;;8.30;3.25;;;;;;;1.61;100.00;100916.44;5068733;28;20477;-71
2021/12/07 06:17:38;;;;;;;9.68;3.35;;;;;;;1.54;100.00;100922.53;5072558;28;20051;-71
2021/12/07 06:20:07;;;;;;;9.70;4.20;;;;;;;1.41;100.00;100920.69;5065932;28;20057;-71
2021/12/07 06:22:35;;;;;;;15.68;4.80;;;;;;;1.33;100.00;100923.28;5070793;28;20250;-71
2021/12/07 06:25:04;;;;;;;6.05;2.83;;;;;;;1.24;100.00;100912.66;5070393;28;20268;-71
2021/12/07 06:27:32;;;;;;;10.27;3.58;;;;;;;1.15;100.00;100915.25;5071746;28;20148;-71
2021/12/07 06:30:02;;;;;;;10.23;4.20;;;;;;;1.19;100.00;100907.41;5073729;28;20423;-71
2021/12/07 06:32:32;;;;;;;7.82;3.03;;;;;;;1.24;100.00;100917.94;5071600;28;20606;-71
2021/12/07 06:34:59;;;;;;;8.88;3.28;;;;;;;1.17;100.00;100924.00;5074302;28;20082;-71
2021/12/07 06:37:27;;;;;;;5.90;2.95;;;;;;;1.12;100.00;100913.47;5069837;28;20472;-69
2021/12/07 06:39:55;;;;;;;10.13;3.97;;;;;;;1.14;100.00;100921.34;5073965;28;20052;-68
2021/12/07 06:42:24;;;;;;;6.60;3.10;;;;;;;1.14;100.00;100916.97;5088467;28;20135;-68
2021/12/07 06:44:52;;;;;;;8.73;4.25;;;;;;;1.13;100.00;100923.13;5072765;28;20510;-68
2021/12/07 06:47:25;;;;;;;7.63;3.47;;;;;;;1.15;100.00;100924.00;5073920;28;20129;-68
2021/12/07 06:49:54;;;;;;;15.30;3.75;;;;;;;1.15;100.00;100926.63;5074711;28;20043;-69
2021/12/07 06:52:22;;;;;;;13.77;3.65;;;;;;;1.15;100.00;100926.63;5073185;28;20684;-70
2021/12/07 06:54:51;;;;;;;11.32;3.20;;;;;;;1.07;100.00;100925.69;5071564;28;20464;-69
2021/12/07 06:57:19;;;;;;;9.65;3.30;;;;;;;1.07;100.00;100921.34;5069971;28;20052;-68
2021/12/07 06:59:47;;;;;;;9.48;3.53;;;;;;;1.02;100.00;100927.38;5073753;28;20059;-70
2021/12/07 07:02:15;;;;;;;8.80;2.95;;;;;;;0.97;100.00;100923.84;5069416;28;20079;-71
2021/12/07 07:04:44;;;;;;;9.68;3.08;;;;;;;0.96;100.00;100920.34;5075633;28;20040;-71
2021/12/07 07:07:16;;;;;;;12.90;3.80;;;;;;;0.95;100.00;100925.59;5073058;28;20052;-71
2021/12/07 07:09:45;;;;;;;16.40;3.70;;;;;;;0.89;100.00;100937.81;5073457;28;20055;-71
2021/12/07 07:12:13;;;;;;;9.90;3.60;;;;;;;0.89;100.00;100934.31;5070021;28;20050;-70
2021/12/07 07:14:42;;;;;;;12.93;4.00;;;;;;;0.86;100.00;100935.13;5073315;28;20335;-70
2021/12/07 07:17:10;;;;;;;9.48;3.83;;;;;;;0.78;100.00;100933.31;5071850;28;20749;-69
2021/12/07 07:19:43;;;;;;;13.25;4.25;;;;;;;0.77;100.00;100932.44;5075567;28;20048;-71
2021/12/07 07:22:12;;;;;;;10.85;3.67;;;;;;;0.84;100.00;100936.88;5070214;28;20053;-71
2021/12/07 07:24:43;;;;;;;9.10;4.13;;;;;;;0.91;100.00;100922.94;5072164;28;20077;-70
2021/12/07 07:27:10;;;;;;;11.25;4.32;;;;;;;0.96;100.00;100922.09;5070802;28;20090;-70
2021/12/07 07:29:39;;;;;;;9.23;4.03;;;;;;;0.99;100.00;100907.25;5074002;28;20142;-68
2021/12/07 07:32:07;;;;;;;14.93;4.60;;;;;;;0.94;100.00;100895.81;5073565;28;20195;-70
2021/12/07 07:34:35;;;;;;;9.63;3.85;;;;;;;0.93;100.00;100894.03;5072761;28;20567;-70
2021/12/07 07:37:04;;;;;;;8.60;3.90;;;;;;;1.06;100.00;100895.03;5069712;28;20040;-68
2021/12/07 07:39:32;;;;;;;11.75;4.43;;;;;;;1.07;100.00;100900.31;5071639;28;20105;-68
2021/12/07 07:42:01;;;;;;;14.05;4.45;;;;;;;1.05;100.00;100904.63;5070962;28;20052;-70
2021/12/07 07:44:29;;;;;;;11.70;4.13;;;;;;;0.99;100.00;100898.44;5070290;28;20050;-69
2021/12/07 07:46:59;;;;;;;16.10;4.35;;;;;;;1.11;100.00;100901.19;5072410;28;20048;-68
2021/12/07 07:49:27;;;;;;;7.40;3.80;;;;;;;1.10;100.00;100902.06;5072577;28;20472;-71
2021/12/07 07:51:55;;;;;;;8.25;3.60;;;;;;;1.08;100.00;100901.16;5072926;28;20172;-70
2021/12/07 07:54:23;;;;;;;12.48;4.53;;;;;;;1.25;100.00;100903.94;5068340;28;20131;-70
2021/12/07 07:56:51;;;;;;;11.27;4.22;;;;;;;1.35;100.00;100903.13;5073071;28;20516;-71
2021/12/07 07:59:20;;;;;;;11.80;4.22;;;;;;;1.32;100.00;100913.63;5069982;28;20056;-70
2021/12/07 08:01:48;;;;;;;12.02;3.72;;;;;;;1.41;100.00;100904.91;5069867;28;20086;-70
2021/12/07 08:04:17;;;;;;;11.23;4.68;;;;;;;1.53;100.00;100910.22;5074133;28;20056;-69
2021/12/07 08:06:46;;;;;;;15.38;4.38;;;;;;;1.55;100.00;100911.16;5069457;28;20055;-69
2021/12/07 08:09:14;;;;;;;9.02;3.75;;;;;;;1.66;100.00;100926.97;5072237;28;20203;-69
2021/12/07 08:11:43;;;;;;;9.50;4.78;;;;;;;1.77;100.00;100921.78;5071882;28;20055;-69
2021/12/07 08:14:11;;;;;;;13.00;4.25;;;;;;;1.78;100.00;100915.66;5071223;28;20045;-69
2021/12/07 08:16:40;;;;;;;17.27;5.18;;;;;;;1.85;100.00;100917.44;5075214;28;20048;-70
2021/12/07 08:19:08;;;;;;;9.52;4.68;;;;;;;1.86;100.00;100914.81;5069734;28;20158;-71
2021/12/07 08:21:37;;;;;;;10.07;4.60;;;;;;;1.93;100.00;100922.75;5069602;28;20048;-70
2021/12/07 08:24:05;;;;;;;13.80;5.00;;;;;;;2.02;100.00;100922.78;5066485;28;20044;-69
2021/12/07 08:26:35;;;;;;;15.77;5.30;;;;;;;2.05;100.00;100923.66;5072207;28;20081;-70
2021/12/07 08:29:03;;;;;;;9.27;4.10;;;;;;;2.34;100.00;100920.25;5068343;28;20048;-70
2021/12/07 08:31:30;;;;;;;14.95;4.78;;;;;;;2.32;100.00;100906.22;5067562;28;20054;-70
2021/12/07 08:34:01;;;;;;;19.42;4.95;;;;;;;2.39;100.00;100915.88;5070407;28;20134;-70
2021/12/07 08:36:29;;;;;;;15.95;4.70;;;;;;;2.48;100.00;100919.44;5071133;28;20060;-70
2021/12/07 08:38:58;;;;;;;10.07;3.95;;;;;;;2.51;100.00;100927.34;5070575;28;20050;-70
2021/12/07 08:41:26;;;;;;;18.08;4.07;;;;;;;2.58;100.00;100923.84;5068623;28;20609;-70
2021/12/07 08:43:54;;;;;;;14.20;4.93;;;;;;;2.68;100.00;100914.19;5071065;28;20065;-70
2021/12/07 08:46:22;;;;;;;14.07;4.07;;;;;;;2.61;100.00;100922.09;5071936;28;20085;-71
2021/12/07 08:48:50;;;;;;;12.38;3.80;;;;;;;2.67;100.00;100913.31;5066535;28;20143;-70
2021/12/07 08:51:19;;;;;;;8.88;3.28;;;;;;;2.68;100.00;100917.72;5070487;28;20162;-70
2021/12/07 08:53:53;;;;;;;11.00;3.90;;;;;;;2.71;100.00;100914.22;5066637;28;20055;-70
2021/12/07 09:01:57;;;;;;;9.77;3.85;;;;;;;2.78;100.00;100905.44;5059415;28;20090;-70
2021/12/07 09:04:25;;;;;;;13.45;3.85;;;;;;;2.76;100.00;100915.97;5067941;28;20048;-70
2021/12/07 09:06:54;;;;;;;21.83;4.60;;;;;;;2.75;100.00;100922.09;5071623;28;20079;-70
2021/12/07 09:09:22;;;;;;;14.20;4.97;;;;;;;2.82;100.00;100908.94;5070044;28;20082;-70
2021/12/07 09:11:50;;;;;;;12.90;5.40;;;;;;;2.92;100.00;100902.81;5069703;28;20159;-70
2021/12/07 09:14:19;;;;;;;19.67;5.60;;;;;;;2.93;100.00;100909.84;5071785;28;20088;-70
2021/12/07 09:16:47;;;;;;;15.23;4.90;;;;;;;2.94;100.00;100907.19;5070416;28;20079;-70
2021/12/07 09:19:16;;;;;;;15.13;5.90;;;;;;;2.94;100.00;100904.53;5066722;28;20059;-70
2021/12/07 09:21:44;;;;;;;12.23;5.05;;;;;;;2.92;100.00;100903.66;5069776;28;20048;-70
2021/12/07 09:24:13;;;;;;;14.13;6.20;;;;;;;2.92;100.00;100900.16;5070923;28;20048;-70
2021/12/07 09:26:41;;;;;;;13.20;6.13;;;;;;;2.97;100.00;100899.28;5068505;28;20051;-70
2021/12/07 09:29:09;;;;;;;13.48;6.40;;;;;;;2.97;100.00;100895.78;5070490;28;20263;-70
2021/12/07 09:31:39;;;;;;;15.68;7.40;;;;;;;2.96;100.00;100889.63;5066184;28;20044;-70
2021/12/07 09:34:07;;;;;;;16.58;7.80;;;;;;;3.01;100.00;100894.00;5070257;28;20052;-70
2021/12/07 09:36:36;;;;;;;18.00;7.35;;;;;;;3.06;100.00;100892.25;5070725;28;20571;-70
2021/12/07 09:39:05;;;;;;;14.25;7.75;;;;;;;3.01;100.00;100899.28;5069766;28;20056;-71
2021/12/07 09:41:35;;;;;;;19.20;8.88;;;;;;;3.15;100.00;100910.69;5067892;28;20094;-71
2021/12/07 09:44:04;;;;;;;18.98;8.68;;;;;;;3.20;100.00;100911.56;5071386;28;20061;-69
2021/12/07 09:46:32;;;;;;;19.17;8.75;;;;;;;3.17;100.00;100903.69;5069081;28;20411;-70
2021/12/07 09:49:00;;;;;;;23.20;9.05;;;;;;;3.20;100.00;100910.69;5070236;28;20051;-70
2021/12/07 09:51:28;;;;;;;22.63;6.90;;;;;;;3.33;100.00;100915.09;5067240;28;20567;-71
2021/12/07 09:53:58;;;;;;;16.85;7.85;;;;;;;3.39;100.00;100919.47;5066117;28;20566;-69
2021/12/07 09:56:27;;;;;;;13.82;6.20;;;;;;;3.39;100.00;100925.66;5071768;28;20159;-70
2021/12/07 09:58:59;;;;;;;18.77;7.07;;;;;;;3.47;100.00;100929.13;5069667;28;20048;-70
2021/12/07 10:01:28;;;;;;;18.88;6.38;;;;;;;3.46;100.00;100929.16;5071660;28;20059;-70
2021/12/07 10:03:57;;;;;;;13.05;5.93;;;;;;;3.48;100.00;100927.38;5071406;28;20139;-70
2021/12/07 10:06:25;;;;;;;16.23;6.18;;;;;;;3.52;100.00;100916.84;5073912;28;20489;-70
2021/12/07 10:08:53;;;;;;;18.00;6.05;;;;;;;3.59;100.00;100917.66;5070428;28;20091;-72
2021/12/07 10:11:21;;;;;;;14.35;6.13;;;;;;;3.64;100.00;100915.03;5071070;28;20067;-71
2021/12/07 10:13:51;;;;;;;21.83;6.10;;;;;;;3.78;100.00;100909.72;5073952;28;20458;-69
2021/12/07 10:16:24;;;;;;;13.35;5.25;;;;;;;3.82;100.00;100906.19;5073194;28;20079;-69
2021/12/07 10:18:57;;;;;;;18.88;5.80;;;;;;;3.86;100.00;100902.66;5071578;28;20048;-70
2021/12/07 10:21:28;;;;;;;20.63;6.43;;;;;;;3.87;100.00;100893.88;5071714;28;20131;-71
2021/12/07 10:24:00;;;;;;;13.77;5.47;;;;;;;4.04;100.00;100881.47;5076371;28;20147;-70
2021/12/07 10:26:31;;;;;;;15.15;6.25;;;;;;;3.99;100.00;100879.75;5072487;28;20208;-71
2021/12/07 10:29:01;;;;;;;14.13;5.80;;;;;;;4.12;100.00;100862.94;5074422;28;20098;-71
2021/12/07 10:31:34;;;;;;;17.05;5.85;;;;;;;4.25;100.00;100866.38;5073146;28;20515;-71
2021/12/07 10:34:05;;;;;;;16.10;6.40;;;;;;;4.13;100.00;100863.81;5073474;28;20485;-70
2021/12/07 10:36:35;;;;;;;13.77;6.47;;;;;;;4.32;100.00;100857.53;5071885;28;20592;-70
2021/12/07 10:39:11;;;;;;;19.13;7.50;;;;;;;4.27;100.00;100851.41;5071844;28;20128;-71
2021/12/07 10:41:42;;;;;;;24.30;7.55;;;;;;;4.22;100.00;100847.91;5071965;28;20138;-71
2021/12/07 10:44:11;;;;;;;21.75;7.57;;;;;;;4.27;100.00;100844.38;5070117;28;20328;-72
2021/12/07 10:46:48;;;;;;;15.20;5.90;;;;;;;4.26;100.00;100833.81;5071380;28;20062;-71
2021/12/07 10:49:27;;;;;;;22.65;7.43;;;;;;;4.19;100.00;100837.34;5071250;28;20156;-71
2021/12/07 10:52:03;;;;;;;22.45;6.47;;;;;;;4.06;100.00;100839.22;5072904;28;20055;-70
2021/12/07 10:54:34;;;;;;;16.52;6.82;;;;;;;4.08;100.00;100835.66;5073848;28;20637;-70
2021/12/07 10:57:04;;;;;;;21.73;7.57;;;;;;;4.13;100.00;100825.06;5069494;28;20051;-71
2021/12/07 10:59:33;;;;;;;23.30;7.35;;;;;;;4.21;100.00;100833.84;5074301;28;20125;-70
2021/12/07 11:02:13;;;;;;;23.98;6.22;;;;;;;4.35;100.00;100844.31;5071571;28;20446;-70
2021/12/07 11:04:41;;;;;;;21.98;6.82;;;;;;;4.46;100.00;100845.13;5073429;28;20044;-70
2021/12/07 11:07:25;;;;;;;18.55;6.47;;;;;;;4.49;100.00;100837.19;5073817;28;20047;-70
2021/12/07 11:10:00;;;;;;;;;;;;;;;4.52;100.00;100828.34;5073402;28;20101;-68
2021/12/07 11:15:25;;;;;;;28.10;6.85;;;;;;;4.30;100.00;100824.97;5071763;28;20044;-71
2021/12/07 11:18:02;;;;;;;21.42;6.50;;;;;;;4.29;100.00;100823.22;5075020;28;20067;-71
2021/12/07 11:20:35;;;;;;;20.50;5.75;;;;;;;4.24;100.00;100827.63;5073605;28;20051;-71
2021/12/07 11:23:12;;;;;;;21.00;7.15;;;;;;;4.24;100.00;100817.97;5073657;28;20183;-69
2021/12/07 11:31:31;;;;;;;27.10;6.43;;;;;;;4.13;100.00;100795.16;5071043;28;20060;-72
2021/12/07 11:34:08;;;;;;;22.75;6.70;;;;;;;4.14;100.00;100792.50;5071812;28;20070;-74
2021/12/07 11:36:40;;;;;;;27.58;8.18;;;;;;;4.09;100.00;100781.97;5071359;28;20120;-73
2021/12/07 11:39:22;;;;;;;36.20;8.07;;;;;;;4.03;100.00;100782.00;5071936;28;20059;-74
2021/12/07 11:41:53;;;;;;;34.85;9.65;;;;;;;4.17;100.00;100776.66;5069227;28;20056;-74
2021/12/07 11:44:22;;;;;;;28.98;10.13;;;;;;;4.18;100.00;100765.19;5072741;28;20071;-74
2021/12/07 11:46:52;;;;;;;30.42;8.80;;;;;;;4.18;100.00;100751.09;5072570;28;20089;-74
2021/12/07 11:49:23;;;;;;;26.98;7.85;;;;;;;4.29;100.00;100746.59;5072103;28;20091;-74
2021/12/07 11:51:53;;;;;;;42.38;9.63;;;;;;;4.37;100.00;100739.50;5070708;28;20156;-74
2021/12/07 11:54:24;;;;;;;31.08;9.50;;;;;;;4.38;100.00;100732.47;5070033;28;20147;-75
2021/12/07 11:56:53;;;;;;;22.83;8.23;;;;;;;4.46;100.00;100728.88;5071789;28;20055;-75
2021/12/07 11:59:22;;;;;;;20.52;5.60;;;;;;;4.45;100.00;100707.75;5073144;28;20048;-74
2021/12/07 12:01:52;;;;;;;17.50;5.25;;;;;;;4.48;100.00;100707.72;5073489;28;20059;-75
2021/12/07 12:04:26;;;;;;;15.75;4.38;;;;;;;4.46;100.00;100702.44;5072668;28;20090;-72
2021/12/07 12:07:08;;;;;;;10.77;3.90;;;;;;;4.60;100.00;100694.38;5070467;28;20048;-71
2021/12/07 12:09:53;;;;;;;12.00;4.57;;;;;;;4.61;100.00;100689.97;5070549;28;20047;-71
2021/12/07 12:12:33;;;;;;;13.18;4.68;;;;;;;4.63;100.00;100688.16;5071152;28;20052;-71
2021/12/07 12:15:38;;;;;;;12.40;4.40;;;;;;;4.71;100.00;100678.41;5069815;28;20052;-71
2021/12/07 12:18:41;;;;;;;14.25;4.10;;;;;;;4.67;100.00;100674.91;5066558;28;20170;-72
2021/12/07 12:21:28;;;;;;;17.10;4.97;;;;;;;4.64;100.00;100667.00;5071335;28;20156;-74
2021/12/07 12:24:23;;;;;;;14.32;5.03;;;;;;;4.65;100.00;100657.34;5067864;28;20371;-73
2021/12/07 12:27:37;;;;;;;14.48;5.50;;;;;;;4.61;100.00;100655.59;5070740;28;20262;-72
2021/12/07 12:30:27;;;;;;;18.20;5.53;;;;;;;4.64;100.00;100648.50;5070710;28;20079;-72
2021/12/07 12:33:10;;;;;;;14.68;5.60;;;;;;;4.59;100.00;100647.69;5056328;28;20052;-72
2021/12/07 12:35:54;;;;;;;15.82;5.68;;;;;;;4.59;100.00;100628.31;5069026;28;20930;-72
2021/12/07 12:38:31;;;;;;;15.35;5.55;;;;;;;4.51;100.00;100631.03;5068659;28;20573;-73
2021/12/07 12:41:03;;;;;;;12.90;5.03;;;;;;;4.48;100.00;100600.25;5071251;28;20159;-75
2021/12/07 12:43:38;;;;;;;14.18;5.72;;;;;;;4.49;100.00;100594.09;5067492;28;20518;-77
2021/12/07 12:46:08;;;;;;;10.20;4.97;;;;;;;4.51;100.00;100611.66;5064082;28;20343;-75
2021/12/07 12:48:36;;;;;;;10.23;4.57;;;;;;;4.46;100.00;100596.75;5063349;28;20347;-76
2021/12/07 12:51:08;;;;;;;16.08;4.85;;;;;;;4.44;100.00;100569.47;5070185;28;20499;-76
2021/12/07 12:53:38;;;;;;;14.10;4.30;;;;;;;4.46;100.00;100587.94;5066555;28;20051;-76
2021/12/07 12:56:08;;;;;;;17.40;5.07;;;;;;;4.37;100.00;100578.34;5069892;28;20667;-77
2021/12/07 12:58:42;;;;;;;13.25;4.60;;;;;;;4.34;100.00;100566.94;5071653;28;20143;-77
2021/12/07 13:01:13;;;;;;;13.25;5.28;;;;;;;4.29;100.00;100562.59;5069202;28;20044;-78
2021/12/07 13:03:59;;;;;;;11.13;4.40;;;;;;;4.28;100.00;100563.47;5068701;28;20071;-77